createdAt,value
2023-01-31T00:01:30.130Z,20.92
2023-01-31T00:06:31.973Z,19.42
2023-01-31T00:11:29.608Z,21.10
2023-01-31T00:16:26.695Z,11.90
2023-01-31T00:21:25.884Z,19.58
2023-01-31T00:26:29.617Z,16.88
2023-01-31T00:31:28.478Z,14.13
2023-01-31T00:36:28.149Z,12.93
2023-01-31T00:41:27.394Z,17.83
2023-01-31T00:46:24.074Z,17.55
2023-01-31T00:51:21.463Z,16.05
2023-01-31T00:56:22.789Z,19.02
2023-01-31T01:01:26.054Z,19.00
2023-01-31T01:06:23.610Z,19.65
2023-01-31T01:11:23.672Z,14.25
2023-01-31T01:16:32.864Z,16.80
2023-01-31T01:21:31.242Z,16.33
2023-01-31T01:26:31.239Z,17.27
2023-01-31T01:31:31.118Z,18.33
2023-01-31T01:36:28.318Z,24.38
2023-01-31T01:41:24.900Z,17.70
2023-01-31T01:46:43.758Z,17.60
2023-01-31T01:51:42.382Z,24.77
2023-01-31T01:56:45.044Z,24.00
2023-01-31T02:01:41.664Z,20.65
2023-01-31T02:06:38.115Z,18.17
2023-01-31T02:11:34.635Z,28.73
2023-01-31T02:16:31.239Z,26.67
2023-01-31T02:21:33.383Z,23.52
2023-01-31T02:26:35.515Z,35.03
2023-01-31T02:31:49.020Z,23.20
2023-01-31T02:37:05.066Z,25.20
2023-01-31T02:42:13.571Z,25.17
2023-01-31T02:47:28.199Z,33.13
2023-01-31T02:52:50.161Z,25.15
2023-01-31T02:57:50.924Z,23.05
2023-01-31T03:02:47.377Z,21.05
2023-01-31T03:07:48.209Z,22.15
2023-01-31T03:12:57.042Z,19.25
2023-01-31T03:18:13.472Z,19.40
2023-01-31T03:23:20.714Z,18.42
2023-01-31T03:28:25.389Z,27.05
2023-01-31T03:33:26.809Z,21.40
2023-01-31T03:38:27.795Z,20.42
2023-01-31T03:43:37.335Z,21.17
2023-01-31T03:48:46.021Z,24.75
2023-01-31T03:53:52.226Z,23.33
2023-01-31T03:58:53.728Z,25.27
2023-01-31T04:03:58.616Z,17.90
2023-01-31T04:08:55.193Z,24.38
2023-01-31T04:13:51.746Z,20.65
2023-01-31T04:18:48.222Z,25.38
2023-01-31T04:23:44.687Z,31.45
2023-01-31T04:28:41.333Z,29.58
2023-01-31T04:33:37.778Z,26.77
2023-01-31T04:38:34.237Z,24.30
2023-01-31T04:43:30.657Z,25.83
2023-01-31T04:48:28.988Z,31.75
2023-01-31T04:53:25.534Z,30.38
2023-01-31T04:58:22.793Z,23.13
2023-01-31T05:03:19.239Z,28.83
2023-01-31T05:08:15.858Z,33.17
2023-01-31T05:13:12.395Z,22.02
2023-01-31T05:18:08.863Z,28.75
2023-01-31T05:23:06.057Z,33.22
2023-01-31T05:28:03.612Z,36.45
2023-01-31T05:33:00.479Z,26.25
2023-01-31T05:37:57.304Z,29.98
2023-01-31T05:42:58.123Z,29.58
2023-01-31T05:47:54.828Z,27.05
2023-01-31T05:52:55.789Z,34.17
2023-01-31T05:57:53.683Z,30.45
2023-01-31T06:02:50.245Z,27.20
2023-01-31T06:07:46.755Z,30.25
2023-01-31T06:12:43.199Z,35.40
2023-01-31T06:17:39.584Z,30.85
2023-01-31T06:22:36.426Z,23.35
2023-01-31T06:27:33.943Z,29.25
2023-01-31T06:32:31.847Z,28.65
2023-01-31T06:37:28.303Z,43.10
2023-01-31T06:42:24.817Z,32.53
2023-01-31T06:47:21.191Z,38.25
2023-01-31T06:52:17.574Z,25.95
2023-01-31T06:57:14.113Z,25.13
2023-01-31T07:02:11.495Z,32.72
2023-01-31T07:07:07.929Z,27.05
2023-01-31T07:12:04.577Z,26.52
2023-01-31T07:17:01.085Z,31.67
2023-01-31T07:21:57.505Z,26.52
2023-01-31T07:26:54.281Z,24.38
2023-01-31T07:31:51.378Z,23.38
2023-01-31T07:36:47.837Z,39.53
2023-01-31T07:41:44.357Z,21.65
2023-01-31T07:46:41.149Z,29.45
2023-01-31T07:51:41.170Z,28.60
2023-01-31T07:56:37.715Z,22.38
2023-01-31T08:01:57.131Z,31.90
2023-01-31T08:06:55.568Z,27.33
2023-01-31T08:11:51.999Z,25.80
2023-01-31T08:16:48.780Z,38.28
2023-01-31T08:21:45.237Z,25.20
2023-01-31T08:26:44.830Z,31.88
2023-01-31T08:31:42.196Z,35.70
2023-01-31T08:36:38.800Z,24.35
2023-01-31T08:41:36.789Z,28.08
2023-01-31T08:46:37.270Z,28.00
2023-01-31T08:51:34.184Z,36.38
2023-01-31T08:56:31.175Z,25.83
2023-01-31T09:01:27.786Z,27.67
2023-01-31T09:06:27.305Z,28.35
2023-01-31T09:11:26.502Z,32.25
2023-01-31T09:16:23.212Z,37.22
2023-01-31T09:21:21.416Z,33.72
2023-01-31T09:26:17.875Z,30.00
2023-01-31T09:31:17.334Z,36.78
2023-01-31T09:36:16.912Z,30.48
2023-01-31T09:41:37.763Z,26.38
2023-01-31T09:46:38.809Z,31.25
2023-01-31T09:51:35.381Z,27.98
2023-01-31T09:56:46.105Z,25.27
2023-01-31T10:02:05.915Z,23.63
2023-01-31T10:07:20.024Z,32.15
2023-01-31T10:12:24.610Z,22.63
2023-01-31T10:17:39.617Z,23.50
2023-01-31T10:22:57.423Z,27.02
2023-01-31T10:28:20.689Z,26.02
2023-01-31T10:33:38.908Z,22.50
2023-01-31T10:38:51.821Z,20.73
2023-01-31T10:43:57.446Z,25.70
2023-01-31T10:48:53.902Z,26.52
2023-01-31T10:54:13.087Z,30.20
2023-01-31T10:59:24.936Z,25.88
2023-01-31T11:04:24.334Z,22.27
2023-01-31T11:09:23.582Z,31.42
2023-01-31T11:14:20.095Z,26.27
2023-01-31T11:19:31.159Z,26.20
2023-01-31T11:24:32.141Z,24.90
2023-01-31T11:29:33.409Z,25.90
2023-01-31T11:34:30.898Z,24.52
2023-01-31T11:39:34.153Z,22.08
2023-01-31T11:44:30.625Z,20.88
2023-01-31T11:49:40.692Z,20.45
2023-01-31T11:54:37.262Z,21.65
2023-01-31T11:59:34.597Z,20.83
2023-01-31T12:04:39.649Z,23.35
2023-01-31T12:09:44.247Z,20.65
2023-01-31T12:14:42.479Z,20.15
2023-01-31T12:19:53.592Z,18.38
2023-01-31T12:25:16.282Z,17.77
2023-01-31T12:30:44.121Z,17.93
2023-01-31T12:35:53.574Z,19.27
2023-01-31T12:41:21.221Z,17.95
2023-01-31T12:46:29.852Z,17.70
2023-01-31T12:51:36.677Z,17.13
2023-01-31T12:56:56.211Z,19.02
2023-01-31T13:02:10.999Z,15.60
2023-01-31T13:07:36.134Z,16.05
2023-01-31T13:12:35.649Z,16.05
2023-01-31T13:17:35.111Z,16.55
2023-01-31T13:22:52.289Z,16.65
2023-01-31T13:28:06.828Z,16.55
2023-01-31T13:33:21.051Z,17.42
2023-01-31T13:38:20.896Z,18.73
2023-01-31T13:43:19.162Z,20.38
2023-01-31T13:48:32.624Z,21.40
2023-01-31T13:53:35.621Z,20.75
2023-01-31T13:58:35.316Z,22.00
2023-01-31T14:04:10.532Z,21.88
2023-01-31T14:09:27.409Z,23.92
2023-01-31T14:14:39.315Z,24.50
2023-01-31T14:19:45.685Z,25.75
2023-01-31T14:24:53.062Z,23.92
2023-01-31T14:29:57.654Z,25.23
2023-01-31T14:34:54.142Z,27.50
2023-01-31T14:40:09.276Z,26.20
2023-01-31T14:45:37.478Z,26.45
2023-01-31T14:51:11.297Z,25.40
2023-01-31T14:56:27.585Z,24.23
2023-01-31T15:01:33.624Z,26.45
2023-01-31T15:06:35.389Z,27.33
2023-01-31T15:11:42.925Z,34.03
2023-01-31T15:16:39.674Z,28.70
2023-01-31T15:21:56.849Z,21.23
2023-01-31T15:26:54.733Z,34.55
2023-01-31T15:32:00.677Z,32.83
2023-01-31T15:37:20.151Z,31.52
2023-01-31T15:42:28.992Z,39.30
2023-01-31T15:47:25.492Z,32.00
2023-01-31T15:52:25.371Z,32.25
2023-01-31T15:57:25.248Z,26.75
2023-01-31T16:02:27.740Z,23.25
2023-01-31T16:07:31.291Z,33.42
2023-01-31T16:12:31.741Z,28.08
2023-01-31T16:17:29.385Z,28.95
2023-01-31T16:22:29.554Z,21.75
2023-01-31T16:27:30.534Z,21.30
2023-01-31T16:32:32.940Z,22.73
2023-01-31T16:37:33.274Z,17.50
2023-01-31T16:42:31.104Z,17.92
2023-01-31T16:47:47.892Z,21.75
2023-01-31T16:52:45.945Z,28.92
2023-01-31T16:57:42.437Z,26.88
2023-01-31T17:02:42.047Z,24.38
2023-01-31T17:07:38.744Z,24.65
2023-01-31T17:12:40.130Z,22.58
2023-01-31T17:17:37.443Z,36.97
2023-01-31T17:22:33.965Z,26.15
2023-01-31T17:27:30.352Z,29.85
2023-01-31T17:32:26.790Z,22.83
2023-01-31T17:37:31.143Z,32.53
2023-01-31T17:42:28.183Z,39.70
2023-01-31T17:47:26.816Z,22.85
2023-01-31T17:52:24.457Z,28.25
2023-01-31T17:57:20.876Z,30.38
2023-01-31T18:02:17.247Z,26.27
2023-01-31T18:07:16.103Z,41.30
2023-01-31T18:12:12.604Z,40.40
2023-01-31T18:17:09.138Z,45.33
2023-01-31T18:22:05.603Z,32.55
2023-01-31T18:27:02.099Z,47.05
2023-01-31T18:32:02.345Z,33.00
2023-01-31T18:36:59.734Z,42.22
2023-01-31T18:41:56.115Z,46.88
2023-01-31T18:46:52.571Z,47.63
2023-01-31T18:51:49.740Z,52.10
2023-01-31T18:56:46.201Z,46.25
2023-01-31T19:01:43.548Z,43.80
2023-01-31T19:06:44.280Z,25.88
2023-01-31T19:11:41.557Z,39.33
2023-01-31T19:16:40.626Z,30.73
2023-01-31T19:21:37.852Z,38.45
2023-01-31T19:26:35.132Z,26.83
2023-01-31T19:31:33.687Z,30.73
2023-01-31T19:36:33.080Z,29.27
2023-01-31T19:41:30.394Z,43.22
2023-01-31T19:46:28.908Z,37.72
2023-01-31T19:51:25.967Z,40.50
2023-01-31T19:56:24.160Z,33.85
2023-01-31T20:01:20.701Z,35.80
2023-01-31T20:06:22.649Z,33.63
2023-01-31T20:11:19.623Z,27.42
2023-01-31T20:16:16.198Z,27.65
2023-01-31T20:21:18.492Z,26.30
2023-01-31T20:26:16.477Z,28.70
2023-01-31T20:31:14.604Z,46.67
2023-01-31T20:36:11.843Z,41.20
2023-01-31T20:41:09.172Z,31.80
2023-01-31T20:46:11.009Z,33.20
2023-01-31T20:51:08.232Z,48.70
2023-01-31T20:56:10.062Z,40.30
2023-01-31T21:01:07.621Z,50.40
2023-01-31T21:06:04.886Z,37.30
2023-01-31T21:11:06.819Z,37.30
2023-01-31T21:16:04.964Z,31.40
2023-01-31T21:21:10.059Z,36.95
2023-01-31T21:26:11.075Z,37.53
2023-01-31T21:31:10.900Z,34.67
2023-01-31T21:36:09.039Z,32.75
2023-01-31T21:41:24.058Z,40.63
2023-01-31T21:46:20.854Z,40.17
2023-01-31T21:51:19.088Z,31.65
2023-01-31T21:56:17.656Z,33.42
2023-01-31T22:01:19.924Z,44.92
2023-01-31T22:06:19.442Z,42.05
2023-01-31T22:11:16.191Z,21.75
2023-01-31T22:16:14.729Z,28.30
2023-01-31T22:21:25.906Z,20.23
2023-01-31T22:26:25.563Z,38.17
2023-01-31T22:31:22.641Z,27.25
2023-01-31T22:36:19.268Z,38.13
2023-01-31T22:41:19.864Z,29.83
2023-01-31T22:46:19.734Z,29.02
2023-01-31T22:51:21.519Z,29.50
2023-01-31T22:56:20.856Z,32.47
2023-01-31T23:01:19.712Z,46.42
2023-01-31T23:06:17.506Z,26.17
2023-01-31T23:11:16.837Z,40.80
2023-01-31T23:16:17.554Z,40.58
2023-01-31T23:21:17.023Z,33.08
2023-01-31T23:26:14.213Z,30.55
2023-01-31T23:31:10.812Z,29.63
2023-01-31T23:36:07.500Z,25.80
2023-01-31T23:41:04.019Z,28.23
2023-01-31T23:46:00.424Z,24.30
2023-01-31T23:51:02.505Z,29.95
2023-01-31T23:55:58.941Z,28.30
